Time;durP1;ratioP1;P1;durP2;ratioP2;P2;SDS_P1;SDS_P2;PMS_P1;PMS_P2;Temp;Humidity;BMP_temperature;BMP_pressure;BME280_temperature;BME280_humidity;BME280_pressure;Samples;Min_cycle;Max_cycle;Signal;HPM_P1;HPM_P2
2024/04/24 00:00:49;;;;;;;13.43;9.02;;;;;;;;;;5289111;26;95558;-49
2024/04/24 00:03:17;;;;;;;16.33;8.38;;;;;;;;;;5266580;26;96096;-49
2024/04/24 00:05:43;;;;;;;12.60;8.30;;;;;;;;;;5260207;26;95409;-51
2024/04/24 00:08:08;;;;;;;12.02;8.43;;;;;;;;;;5263306;26;96217;-51
2024/04/24 00:10:33;;;;;;;15.13;10.30;;;;;;;;;;5292767;26;97202;-52
2024/04/24 00:12:59;;;;;;;15.48;9.60;;;;;;;;;;5232873;26;95941;-51
2024/04/24 00:15:24;;;;;;;17.20;9.80;;;;;;;;;;5263121;26;95996;-51
2024/04/24 00:17:49;;;;;;;15.27;10.50;;;;;;;;;;5259921;26;98502;-51
2024/04/24 00:20:15;;;;;;;23.90;13.05;;;;;;;;;;5307743;26;95566;-51
2024/04/24 00:22:40;;;;;;;17.38;11.43;;;;;;;;;;5286240;26;99466;-54
2024/04/24 00:25:06;;;;;;;13.25;8.73;;;;;;;;;;5307672;26;97530;-54
2024/04/24 00:27:31;;;;;;;13.30;8.90;;;;;;;;;;5264780;26;96887;-49
2024/04/24 00:29:56;;;;;;;15.57;9.13;;;;;;;;;;5264922;26;96540;-49
2024/04/24 00:32:21;;;;;;;13.70;8.75;;;;;;;;;;5265364;26;96278;-49
2024/04/24 00:34:47;;;;;;;15.30;8.25;;;;;;;;;;5266669;26;96773;-50
2024/04/24 00:37:12;;;;;;;14.38;8.93;;;;;;;;;;5267206;26;98756;-48
2024/04/24 00:39:38;;;;;;;16.45;9.18;;;;;;;;;;5266036;26;95563;-51
2024/04/24 00:42:03;;;;;;;16.10;8.80;;;;;;;;;;5266600;26;96007;-49
2024/04/24 00:44:28;;;;;;;13.70;8.98;;;;;;;;;;5265572;26;95915;-50
2024/04/24 00:46:56;;;;;;;13.05;8.48;;;;;;;;;;5303309;26;95806;-49
2024/04/24 00:49:22;;;;;;;15.45;8.77;;;;;;;;;;5265366;26;98291;-50
2024/04/24 00:51:47;;;;;;;19.65;9.35;;;;;;;;;;5254250;26;96044;-50
2024/04/24 00:54:13;;;;;;;17.20;9.77;;;;;;;;;;5217710;26;97046;-49
2024/04/24 00:56:40;;;;;;;15.27;9.00;;;;;;;;;;5264547;26;96031;-54
2024/04/24 00:59:06;;;;;;;14.15;8.75;;;;;;;;;;5265814;26;95793;-54
2024/04/24 01:01:31;;;;;;;14.95;9.00;;;;;;;;;;5265914;26;95915;-50
2024/04/24 01:03:57;;;;;;;13.95;8.80;;;;;;;;;;5263499;26;95965;-50
2024/04/24 01:06:22;;;;;;;12.15;8.38;;;;;;;;;;5260292;26;95782;-50
2024/04/24 01:08:47;;;;;;;13.23;8.48;;;;;;;;;;5294220;26;99136;-49
2024/04/24 01:11:13;;;;;;;16.08;8.55;;;;;;;;;;5264928;26;95655;-50
2024/04/24 01:13:38;;;;;;;13.93;8.65;;;;;;;;;;5313627;26;98781;-49
2024/04/24 01:16:15;;;;;;;14.00;9.25;;;;;;;;;;5264913;26;96025;-49
2024/04/24 01:18:47;;;;;;;13.77;8.40;;;;;;;;;;5306810;26;95806;-49
2024/04/24 01:21:14;;;;;;;11.40;7.70;;;;;;;;;;5252875;26;96054;-54
2024/04/24 01:23:48;;;;;;;12.88;9.30;;;;;;;;;;5264509;26;96043;-54
2024/04/24 01:26:19;;;;;;;13.48;8.48;;;;;;;;;;5265776;26;97312;-50
2024/04/24 01:28:45;;;;;;;12.95;8.98;;;;;;;;;;5267686;26;96835;-49
2024/04/24 01:31:10;;;;;;;15.55;9.18;;;;;;;;;;5252354;26;95971;-54
2024/04/24 01:33:36;;;;;;;14.80;9.40;;;;;;;;;;5299459;26;97594;-54
2024/04/24 01:36:01;;;;;;;14.10;9.80;;;;;;;;;;5258191;26;99230;-54
2024/04/24 01:38:26;;;;;;;15.15;10.07;;;;;;;;;;5263044;26;95775;-55
2024/04/24 01:40:52;;;;;;;13.70;9.18;;;;;;;;;;5263969;26;96059;-51
2024/04/24 01:43:17;;;;;;;15.15;9.70;;;;;;;;;;5306088;26;98269;-49
2024/04/24 01:45:43;;;;;;;14.27;9.60;;;;;;;;;;5300273;26;95988;-50
2024/04/24 01:48:08;;;;;;;13.05;8.95;;;;;;;;;;5266143;26;95957;-50
2024/04/24 01:50:34;;;;;;;18.38;10.50;;;;;;;;;;5255130;26;99298;-50
2024/04/24 01:53:01;;;;;;;12.85;9.27;;;;;;;;;;5265606;26;96056;-49
2024/04/24 01:55:26;;;;;;;15.38;10.00;;;;;;;;;;5309790;26;97265;-49
2024/04/24 01:57:51;;;;;;;16.48;9.70;;;;;;;;;;5242314;26;95933;-51
2024/04/24 02:00:17;;;;;;;15.05;10.05;;;;;;;;;;5265870;26;95959;-48
2024/04/24 02:02:42;;;;;;;17.38;10.55;;;;;;;;;;5250674;26;98418;-50
2024/04/24 02:05:07;;;;;;;15.25;9.75;;;;;;;;;;5265043;26;96166;-50
2024/04/24 02:07:33;;;;;;;14.43;10.27;;;;;;;;;;5309865;26;98858;-49
2024/04/24 02:09:58;;;;;;;15.02;9.73;;;;;;;;;;5263163;26;96063;-49
2024/04/24 02:12:23;;;;;;;16.20;10.07;;;;;;;;;;5267608;26;96022;-51
2024/04/24 02:14:49;;;;;;;18.60;9.27;;;;;;;;;;5263811;26;96142;-50
2024/04/24 02:17:14;;;;;;;13.88;9.07;;;;;;;;;;5264251;26;96078;-50
2024/04/24 02:19:42;;;;;;;14.68;10.02;;;;;;;;;;5262182;26;96026;-50
2024/04/24 02:22:07;;;;;;;13.52;9.07;;;;;;;;;;5238836;26;98546;-49
2024/04/24 02:27:16;;;;;;;14.65;9.80;;;;;;;;;;5247173;26;95951;-50
2024/04/24 02:29:42;;;;;;;16.90;9.40;;;;;;;;;;5292040;26;98582;-50
2024/04/24 02:32:07;;;;;;;16.73;9.98;;;;;;;;;;5308710;26;95557;-49
2024/04/24 02:34:33;;;;;;;17.30;9.90;;;;;;;;;;5247667;26;98823;-50
2024/04/24 02:36:58;;;;;;;15.75;9.52;;;;;;;;;;5264963;26;95603;-51
2024/04/24 02:39:23;;;;;;;13.63;9.10;;;;;;;;;;5298978;26;97528;-51
2024/04/24 02:41:49;;;;;;;14.38;9.60;;;;;;;;;;5300435;26;99826;-49
2024/04/24 02:44:14;;;;;;;15.15;9.02;;;;;;;;;;5310232;26;95835;-49
2024/04/24 02:46:40;;;;;;;13.18;8.80;;;;;;;;;;5262766;26;97212;-49
2024/04/24 02:49:06;;;;;;;13.95;9.48;;;;;;;;;;5263386;26;96422;-52
2024/04/24 02:51:31;;;;;;;16.73;9.90;;;;;;;;;;5263958;26;95892;-51
2024/04/24 02:53:57;;;;;;;13.35;8.10;;;;;;;;;;5263630;26;96027;-49
2024/04/24 02:56:22;;;;;;;27.02;9.07;;;;;;;;;;5267837;26;96894;-50
2024/04/24 02:58:48;;;;;;;20.15;9.25;;;;;;;;;;5263845;26;97664;-51
2024/04/24 03:01:13;;;;;;;16.60;8.30;;;;;;;;;;5264290;26;95952;-51
2024/04/24 03:03:39;;;;;;;16.77;7.97;;;;;;;;;;5274053;26;95919;-51
2024/04/24 03:06:04;;;;;;;12.23;7.70;;;;;;;;;;5241162;26;99499;-51
2024/04/24 03:08:30;;;;;;;12.65;6.72;;;;;;;;;;5298082;26;100781;-49
2024/04/24 03:10:55;;;;;;;12.43;6.72;;;;;;;;;;5241842;26;95573;-49
2024/04/24 03:13:21;;;;;;;14.98;6.65;;;;;;;;;;5265256;26;96080;-50
2024/04/24 03:15:46;;;;;;;16.08;6.90;;;;;;;;;;5267818;26;97424;-50
2024/04/24 03:18:12;;;;;;;13.88;6.88;;;;;;;;;;5306774;26;99800;-51
2024/04/24 03:20:37;;;;;;;13.50;5.43;;;;;;;;;;5262147;26;98412;-49
2024/04/24 03:23:04;;;;;;;12.27;6.28;;;;;;;;;;5265040;26;95916;-50
2024/04/24 03:25:29;;;;;;;10.77;5.35;;;;;;;;;;5312663;26;97134;-51
2024/04/24 03:27:55;;;;;;;10.45;4.97;;;;;;;;;;5262432;26;97495;-51
2024/04/24 03:30:20;;;;;;;8.65;5.72;;;;;;;;;;5320228;26;95570;-51
2024/04/24 03:32:46;;;;;;;10.27;5.32;;;;;;;;;;5259115;26;98332;-51
2024/04/24 03:35:11;;;;;;;10.00;5.18;;;;;;;;;;5262588;26;95908;-49
2024/04/24 03:37:37;;;;;;;11.13;5.13;;;;;;;;;;5301885;26;95902;-48
2024/04/24 03:40:02;;;;;;;25.25;5.55;;;;;;;;;;5262456;26;95923;-48
2024/04/24 03:42:28;;;;;;;9.18;4.75;;;;;;;;;;5308851;26;95460;-55
2024/04/24 03:44:53;;;;;;;13.70;5.00;;;;;;;;;;5263172;26;96570;-54
2024/04/24 03:47:19;;;;;;;10.23;5.05;;;;;;;;;;5300939;26;98555;-49
2024/04/24 03:49:44;;;;;;;13.93;4.72;;;;;;;;;;5257296;26;96284;-47
2024/04/24 03:52:10;;;;;;;8.68;4.82;;;;;;;;;;5258539;26;95990;-49
2024/04/24 03:54:35;;;;;;;11.50;5.50;;;;;;;;;;5299624;26;98856;-50
2024/04/24 03:57:01;;;;;;;10.27;4.68;;;;;;;;;;5260935;26;95891;-54
2024/04/24 03:59:26;;;;;;;11.50;4.32;;;;;;;;;;5264497;26;98837;-54
2024/04/24 04:01:52;;;;;;;9.00;4.30;;;;;;;;;;5259795;26;95927;-50
2024/04/24 04:04:17;;;;;;;34.00;5.68;;;;;;;;;;5261518;26;96360;-50
2024/04/24 04:06:42;;;;;;;14.80;5.05;;;;;;;;;;5225204;26;100356;-54
2024/04/24 04:09:08;;;;;;;8.50;4.38;;;;;;;;;;5263482;26;95842;-54
2024/04/24 04:11:33;;;;;;;11.18;4.60;;;;;;;;;;5265251;26;95997;-51
2024/04/24 04:13:58;;;;;;;10.38;4.38;;;;;;;;;;5265138;26;96129;-50
2024/04/24 04:16:24;;;;;;;8.98;4.43;;;;;;;;;;5264371;26;95844;-50
2024/04/24 04:18:49;;;;;;;10.73;4.35;;;;;;;;;;5241911;26;98701;-49
2024/04/24 04:21:14;;;;;;;13.52;5.57;;;;;;;;;;5306194;26;99118;-50
2024/04/24 04:23:40;;;;;;;11.23;5.20;;;;;;;;;;5265640;26;95889;-49
2024/04/24 04:26:05;;;;;;;10.73;4.30;;;;;;;;;;5265371;26;96503;-50
2024/04/24 04:28:31;;;;;;;11.57;4.13;;;;;;;;;;5251439;26;95885;-50
2024/04/24 04:30:56;;;;;;;7.78;4.55;;;;;;;;;;5260552;26;98596;-50
2024/04/24 04:33:21;;;;;;;10.10;4.65;;;;;;;;;;5293775;26;98882;-49
2024/04/24 04:35:47;;;;;;;10.98;4.65;;;;;;;;;;5300632;26;95806;-49
2024/04/24 04:38:12;;;;;;;10.65;4.70;;;;;;;;;;5266108;26;96004;-51
2024/04/24 04:40:38;;;;;;;9.35;5.57;;;;;;;;;;5248800;26;99026;-49
2024/04/24 04:43:03;;;;;;;12.85;5.57;;;;;;;;;;5314276;26;95983;-51
2024/04/24 04:45:29;;;;;;;9.48;6.05;;;;;;;;;;5305951;26;99150;-49
2024/04/24 04:47:54;;;;;;;10.00;6.45;;;;;;;;;;5264839;26;95972;-49
2024/04/24 04:50:19;;;;;;;23.17;7.30;;;;;;;;;;5304768;26;98870;-49
2024/04/24 04:52:45;;;;;;;14.50;7.25;;;;;;;;;;5266461;26;96023;-54
2024/04/24 04:55:10;;;;;;;12.00;6.85;;;;;;;;;;5263164;26;95958;-54
2024/04/24 04:57:35;;;;;;;14.32;7.00;;;;;;;;;;5290445;26;97999;-50
2024/04/24 05:00:01;;;;;;;12.70;6.78;;;;;;;;;;5272779;26;99146;-50
2024/04/24 05:02:26;;;;;;;9.38;6.45;;;;;;;;;;5256453;26;95887;-49
2024/04/24 05:04:51;;;;;;;10.85;5.63;;;;;;;;;;5258723;26;96037;-49
2024/04/24 05:07:16;;;;;;;13.23;6.93;;;;;;;;;;5263435;26;95799;-50
2024/04/24 05:09:42;;;;;;;9.80;6.13;;;;;;;;;;5247451;26;99190;-51
2024/04/24 05:12:07;;;;;;;12.50;6.07;;;;;;;;;;5233507;26;97298;-51
2024/04/24 05:14:32;;;;;;;11.02;5.97;;;;;;;;;;5287130;26;96046;-52
2024/04/24 05:16:59;;;;;;;10.63;5.97;;;;;;;;;;5251609;26;97744;-51
2024/04/24 05:19:24;;;;;;;11.88;5.85;;;;;;;;;;5255074;26;96029;-50
2024/04/24 05:21:50;;;;;;;11.40;5.88;;;;;;;;;;5259434;26;95612;-50
2024/04/24 05:24:16;;;;;;;11.27;5.45;;;;;;;;;;5251606;26;95988;-50
2024/04/24 05:29:25;;;;;;;16.63;5.28;;;;;;;;;;5262407;26;96360;-50
2024/04/24 05:31:50;;;;;;;12.55;4.72;;;;;;;;;;5259321;26;99846;-50
2024/04/24 05:34:16;;;;;;;12.80;5.03;;;;;;;;;;5258159;26;96014;-49
2024/04/24 05:36:41;;;;;;;14.88;5.13;;;;;;;;;;5288610;26;97126;-53
2024/04/24 05:39:07;;;;;;;11.27;4.10;;;;;;;;;;5262282;26;96176;-54
2024/04/24 05:41:32;;;;;;;9.48;4.25;;;;;;;;;;5264279;26;95622;-54
2024/04/24 05:43:58;;;;;;;9.93;4.55;;;;;;;;;;5263833;26;96153;-54
2024/04/24 05:46:23;;;;;;;9.55;4.13;;;;;;;;;;5260796;26;95861;-54
2024/04/24 05:48:48;;;;;;;9.57;3.95;;;;;;;;;;5254997;26;96206;-54
2024/04/24 05:51:13;;;;;;;6.70;3.42;;;;;;;;;;5254273;26;98584;-51
2024/04/24 05:53:39;;;;;;;47.28;6.45;;;;;;;;;;5276788;26;95873;-51
2024/04/24 05:56:04;;;;;;;10.88;3.30;;;;;;;;;;5259554;26;96219;-54
2024/04/24 05:58:30;;;;;;;45.10;5.85;;;;;;;;;;5231066;26;98818;-54
2024/04/24 06:00:55;;;;;;;9.30;2.97;;;;;;;;;;5259084;26;95936;-51
2024/04/24 06:03:20;;;;;;;9.25;3.03;;;;;;;;;;5233263;26;97237;-51
2024/04/24 06:05:46;;;;;;;9.02;2.83;;;;;;;;;;5249393;26;95813;-50
2024/04/24 06:08:12;;;;;;;6.07;2.17;;;;;;;;;;5295181;26;96130;-51
2024/04/24 06:10:37;;;;;;;29.08;3.80;;;;;;;;;;5261427;26;96569;-50
2024/04/24 06:13:03;;;;;;;23.52;3.10;;;;;;;;;;5256145;26;95953;-50
2024/04/24 06:15:28;;;;;;;10.70;2.00;;;;;;;;;;5258142;26;96691;-50
2024/04/24 06:17:54;;;;;;;7.68;2.20;;;;;;;;;;5259260;26;96300;-51
2024/04/24 06:20:21;;;;;;;10.27;2.33;;;;;;;;;;5260565;26;95770;-51
2024/04/24 06:22:46;;;;;;;35.15;3.63;;;;;;;;;;5262952;26;96174;-51
2024/04/24 06:25:12;;;;;;;10.48;2.13;;;;;;;;;;5261962;26;96021;-51
2024/04/24 06:27:37;;;;;;;5.35;1.13;;;;;;;;;;5262479;26;96537;-55
2024/04/24 06:30:04;;;;;;;7.07;1.42;;;;;;;;;;5265935;26;95952;-55
2024/04/24 06:32:29;;;;;;;6.50;1.52;;;;;;;;;;5238779;26;95918;-50
2024/04/24 06:34:54;;;;;;;5.53;1.38;;;;;;;;;;5259183;26;96070;-50
2024/04/24 06:37:20;;;;;;;9.73;1.30;;;;;;;;;;5263073;26;96064;-51
2024/04/24 06:39:46;;;;;;;5.50;1.52;;;;;;;;;;5291643;26;96020;-51
2024/04/24 06:42:12;;;;;;;5.80;1.02;;;;;;;;;;5257100;26;98856;-51
2024/04/24 06:44:37;;;;;;;5.95;1.10;;;;;;;;;;5298091;26;99026;-50
2024/04/24 06:47:04;;;;;;;21.05;1.50;;;;;;;;;;5259698;26;96086;-51
2024/04/24 06:49:30;;;;;;;12.02;1.40;;;;;;;;;;5262567;26;96175;-50
2024/04/24 06:51:55;;;;;;;8.40;1.60;;;;;;;;;;5264767;26;96077;-50
2024/04/24 06:54:20;;;;;;;8.68;1.20;;;;;;;;;;5262046;26;95822;-51
2024/04/24 06:56:46;;;;;;;6.68;1.33;;;;;;;;;;5260093;26;98983;-51
2024/04/24 06:59:11;;;;;;;8.77;1.60;;;;;;;;;;5261678;26;96296;-50
2024/04/24 07:01:36;;;;;;;6.63;1.13;;;;;;;;;;5260802;26;96318;-50
2024/04/24 07:04:01;;;;;;;7.85;1.17;;;;;;;;;;5261754;26;95825;-50
2024/04/24 07:06:27;;;;;;;27.90;3.55;;;;;;;;;;5255003;26;97556;-54
2024/04/24 07:08:52;;;;;;;68.07;7.28;;;;;;;;;;5254607;26;96004;-54
2024/04/24 07:11:17;;;;;;;87.03;9.40;;;;;;;;;;5242497;26;97202;-50
2024/04/24 07:13:43;;;;;;;11.57;1.73;;;;;;;;;;5253521;26;97150;-52
2024/04/24 07:16:08;;;;;;;7.63;0.82;;;;;;;;;;5242894;26;97361;-50
2024/04/24 07:18:33;;;;;;;8.35;1.10;;;;;;;;;;5250837;26;95620;-50
2024/04/24 07:20:59;;;;;;;9.73;0.85;;;;;;;;;;5257353;26;96130;-50
2024/04/24 07:23:24;;;;;;;10.15;0.80;;;;;;;;;;5285052;26;97793;-50
2024/04/24 07:25:50;;;;;;;18.63;2.33;;;;;;;;;;5262335;26;95750;-51
2024/04/24 07:28:15;;;;;;;144.52;17.23;;;;;;;;;;5262868;26;95952;-50
2024/04/24 07:30:40;;;;;;;52.10;5.97;;;;;;;;;;5258639;26;96177;-51
2024/04/24 07:33:06;;;;;;;254.90;25.38;;;;;;;;;;5291486;26;95969;-55
2024/04/24 07:35:32;;;;;;;43.03;3.10;;;;;;;;;;5255170;26;97287;-50
2024/04/24 07:37:57;;;;;;;11.68;1.45;;;;;;;;;;5228164;26;97905;-49
2024/04/24 07:40:23;;;;;;;107.15;12.68;;;;;;;;;;5236600;26;97522;-49
2024/04/24 07:42:48;;;;;;;8.35;0.93;;;;;;;;;;5249103;26;96461;-49
2024/04/24 07:45:14;;;;;;;16.00;1.52;;;;;;;;;;5258158;26;96272;-49
2024/04/24 07:47:39;;;;;;;7.90;1.05;;;;;;;;;;5259256;26;96197;-48
2024/04/24 07:50:04;;;;;;;16.50;1.52;;;;;;;;;;5263548;26;98802;-49
2024/04/24 07:52:30;;;;;;;3.70;0.57;;;;;;;;;;5245166;26;95835;-49
2024/04/24 07:54:55;;;;;;;8.77;1.10;;;;;;;;;;5262341;26;95973;-48
2024/04/24 07:57:20;;;;;;;7.72;0.75;;;;;;;;;;5282938;26;95574;-50
2024/04/24 07:59:46;;;;;;;5.72;0.65;;;;;;;;;;5253182;26;95969;-50
2024/04/24 08:02:11;;;;;;;4.40;0.63;;;;;;;;;;5258238;26;95984;-50
2024/04/24 08:04:36;;;;;;;4.47;0.52;;;;;;;;;;5251881;26;95697;-50
2024/04/24 08:07:02;;;;;;;3.90;0.52;;;;;;;;;;5304490;26;97191;-49
2024/04/24 08:09:28;;;;;;;7.55;0.52;;;;;;;;;;5255525;26;98266;-49
2024/04/24 08:11:54;;;;;;;6.43;0.98;;;;;;;;;;5256199;26;95774;-49
2024/04/24 08:14:19;;;;;;;4.70;0.60;;;;;;;;;;5274218;26;97050;-50
2024/04/24 08:16:44;;;;;;;5.07;0.88;;;;;;;;;;5287471;26;99270;-48
2024/04/24 08:19:10;;;;;;;7.72;0.60;;;;;;;;;;5256798;26;96105;-50
2024/04/24 08:21:35;;;;;;;11.68;1.05;;;;;;;;;;5260283;26;99005;-49
2024/04/24 08:24:00;;;;;;;6.95;0.60;;;;;;;;;;5234215;26;95716;-49
2024/04/24 08:26:26;;;;;;;4.30;0.50;;;;;;;;;;5287379;26;98697;-49
2024/04/24 08:28:51;;;;;;;4.28;0.52;;;;;;;;;;5266806;26;98882;-50
2024/04/24 08:31:17;;;;;;;8.35;0.75;;;;;;;;;;5251874;26;96051;-49
2024/04/24 08:33:42;;;;;;;7.72;0.77;;;;;;;;;;5255974;26;96092;-50
2024/04/24 08:36:09;;;;;;;9.00;0.63;;;;;;;;;;5261791;26;96110;-49
2024/04/24 08:38:35;;;;;;;4.10;0.43;;;;;;;;;;5258452;26;97033;-50
2024/04/24 08:41:06;;;;;;;5.55;0.70;;;;;;;;;;5298788;26;98810;-50
2024/04/24 08:43:36;;;;;;;4.85;0.50;;;;;;;;;;5261592;26;95648;-50
2024/04/24 08:46:03;;;;;;;3.72;0.70;;;;;;;;;;5289025;26;99083;-49
2024/04/24 08:48:32;;;;;;;6.82;0.70;;;;;;;;;;5262097;26;96018;-49
2024/04/24 08:51:00;;;;;;;8.80;0.60;;;;;;;;;;5265570;26;95957;-50
2024/04/24 08:53:30;;;;;;;6.18;0.80;;;;;;;;;;5258191;26;95971;-50
2024/04/24 08:55:56;;;;;;;;;;;;;;;;;;5266602;26;96444;-50
2024/04/24 08:58:24;;;;;;;4.50;0.43;;;;;;;;;;5248203;26;95500;-50
2024/04/24 09:00:49;;;;;;;6.35;0.77;;;;;;;;;;5262367;26;96592;-50
2024/04/24 09:03:24;;;;;;;7.10;0.60;;;;;;;;;;5265354;26;95533;-49
2024/04/24 09:05:53;;;;;;;6.57;1.02;;;;;;;;;;5308416;26;99358;-50
2024/04/24 09:08:20;;;;;;;12.73;1.95;;;;;;;;;;5258139;26;96349;-50
2024/04/24 09:10:45;;;;;;;10.80;0.65;;;;;;;;;;5257528;26;95862;-49
2024/04/24 09:13:12;;;;;;;16.65;1.23;;;;;;;;;;5287961;26;99202;-50
2024/04/24 09:15:38;;;;;;;3.95;0.50;;;;;;;;;;5259405;26;96194;-50
2024/04/24 09:18:04;;;;;;;5.80;0.40;;;;;;;;;;5256991;26;95802;-48
2024/04/24 09:20:33;;;;;;;4.95;0.50;;;;;;;;;;5264197;26;97101;-48
2024/04/24 09:22:59;;;;;;;10.02;0.60;;;;;;;;;;5262767;26;95911;-50
2024/04/24 09:25:25;;;;;;;4.90;1.08;;;;;;;;;;5240525;26;98767;-49
2024/04/24 09:27:53;;;;;;;5.75;0.70;;;;;;;;;;5255445;26;96293;-49
2024/04/24 09:30:20;;;;;;;14.63;0.82;;;;;;;;;;5251995;26;96413;-49
2024/04/24 09:32:45;;;;;;;12.38;0.70;;;;;;;;;;5225810;26;98701;-50
2024/04/24 09:35:11;;;;;;;5.38;0.80;;;;;;;;;;5253477;26;96188;-50
2024/04/24 09:37:36;;;;;;;6.65;0.50;;;;;;;;;;5264560;26;95695;-50
2024/04/24 09:40:04;;;;;;;5.72;0.60;;;;;;;;;;5252323;26;97768;-49
2024/04/24 09:42:30;;;;;;;7.47;0.82;;;;;;;;;;5271828;26;97636;-50
2024/04/24 09:44:58;;;;;;;10.05;0.70;;;;;;;;;;5294974;26;98973;-49
2024/04/24 09:47:26;;;;;;;7.53;0.52;;;;;;;;;;5227844;26;98762;-49
2024/04/24 09:49:55;;;;;;;6.10;0.93;;;;;;;;;;5226328;26;96535;-49
2024/04/24 09:52:21;;;;;;;9.37;0.53;;;;;;;;;;5262226;26;96546;-49
2024/04/24 09:54:48;;;;;;;8.20;0.70;;;;;;;;;;5284169;26;100264;-50
2024/04/24 09:57:17;;;;;;;7.97;1.85;;;;;;;;;;5259205;26;95905;-50
2024/04/24 09:59:51;;;;;;;9.45;1.00;;;;;;;;;;5264775;26;96085;-50
2024/04/24 10:02:21;;;;;;;24.27;0.98;;;;;;;;;;5255262;26;96588;-52
2024/04/24 10:04:50;;;;;;;;;;;;;;;;;;5263652;26;98148;-52
2024/04/24 10:07:16;;;;;;;7.23;0.77;;;;;;;;;;5263285;26;98834;-50
2024/04/24 10:09:44;;;;;;;12.15;0.93;;;;;;;;;;5267244;26;95675;-50
2024/04/24 10:12:20;;;;;;;6.75;0.90;;;;;;;;;;5284040;26;98928;-50
2024/04/24 10:14:55;;;;;;;8.63;0.50;;;;;;;;;;5288115;26;97893;-49
2024/04/24 10:17:21;;;;;;;11.07;0.82;;;;;;;;;;5251710;26;98230;-49
2024/04/24 10:19:48;;;;;;;7.22;0.80;;;;;;;;;;5283252;26;99188;-51
2024/04/24 10:22:14;;;;;;;8.98;0.80;;;;;;;;;;5261976;26;97121;-49
2024/04/24 10:24:41;;;;;;;8.30;0.65;;;;;;;;;;5230080;26;97959;-50
2024/04/24 10:27:07;;;;;;;5.28;0.52;;;;;;;;;;5259735;26;99717;-49
2024/04/24 10:29:34;;;;;;;9.38;1.23;;;;;;;;;;5261652;26;97831;-49
2024/04/24 10:32:01;;;;;;;4.53;0.65;;;;;;;;;;5236077;26;99349;-49
2024/04/24 10:34:28;;;;;;;6.85;0.90;;;;;;;;;;5282436;26;97785;-49
2024/04/24 10:36:54;;;;;;;18.25;0.80;;;;;;;;;;5262360;26;95873;-49
2024/04/24 10:39:20;;;;;;;5.55;0.50;;;;;;;;;;5261488;26;96665;-50
2024/04/24 10:41:45;;;;;;;9.18;0.65;;;;;;;;;;5258655;26;95998;-50
2024/04/24 10:44:11;;;;;;;7.63;1.10;;;;;;;;;;5290100;26;98375;-50
2024/04/24 10:46:37;;;;;;;3.95;0.75;;;;;;;;;;5289801;26;98753;-51
2024/04/24 10:49:06;;;;;;;8.60;0.70;;;;;;;;;;5270809;26;99045;-49
2024/04/24 10:51:33;;;;;;;4.88;0.65;;;;;;;;;;5260936;26;95971;-49
2024/04/24 10:54:10;;;;;;;16.40;1.08;;;;;;;;;;5263790;26;98875;-50
2024/04/24 10:56:43;;;;;;;8.35;1.52;;;;;;;;;;5289765;26;95997;-50
2024/04/24 10:59:09;;;;;;;6.20;0.68;;;;;;;;;;5246619;26;97307;-50
2024/04/24 11:01:34;;;;;;;8.85;0.75;;;;;;;;;;5263355;26;96020;-49
2024/04/24 11:04:03;;;;;;;7.35;0.85;;;;;;;;;;5244652;26;95707;-50
2024/04/24 11:06:29;;;;;;;12.63;1.60;;;;;;;;;;5232632;26;98724;-50
2024/04/24 11:08:56;;;;;;;4.63;0.60;;;;;;;;;;5255752;26;97370;-51
2024/04/24 11:11:23;;;;;;;2.60;0.60;;;;;;;;;;5235514;26;95941;-50
2024/04/24 11:13:59;;;;;;;4.75;1.23;;;;;;;;;;5258905;26;96291;-50
2024/04/24 11:16:25;;;;;;;7.40;0.98;;;;;;;;;;5228553;26;96541;-49
2024/04/24 11:18:50;;;;;;;5.38;0.80;;;;;;;;;;5255483;26;98750;-50
2024/04/24 11:21:26;;;;;;;64.43;4.57;;;;;;;;;;5292326;26;97111;-49
2024/04/24 11:23:56;;;;;;;7.95;1.10;;;;;;;;;;5258820;26;95906;-50
2024/04/24 11:26:34;;;;;;;8.63;1.30;;;;;;;;;;5258566;26;97741;-49
2024/04/24 11:29:06;;;;;;;11.85;1.17;;;;;;;;;;5260716;26;96076;-49
2024/04/24 11:31:44;;;;;;;4.32;1.00;;;;;;;;;;5260590;26;95766;-50
2024/04/24 11:34:10;;;;;;;7.07;1.13;;;;;;;;;;5273212;26;97397;-51
2024/04/24 11:36:37;;;;;;;4.00;0.60;;;;;;;;;;5314072;26;95851;-50
2024/04/24 11:39:02;;;;;;;75.03;4.43;;;;;;;;;;5264954;26;96030;-49
2024/04/24 11:41:32;;;;;;;8.60;0.95;;;;;;;;;;5262364;26;96119;-49
2024/04/24 11:43:58;;;;;;;;;;;;;;;;;;5271974;26;95746;-49
2024/04/24 11:46:25;;;;;;;6.70;1.08;;;;;;;;;;5241974;26;97848;-49
2024/04/24 11:48:52;;;;;;;6.40;0.73;;;;;;;;;;5252410;26;97691;-49
2024/04/24 11:51:19;;;;;;;99.55;5.25;;;;;;;;;;5239528;26;98089;-49
2024/04/24 11:53:48;;;;;;;7.35;0.85;;;;;;;;;;5253098;26;96099;-48
2024/04/24 11:56:14;;;;;;;8.98;0.70;;;;;;;;;;5270524;26;95975;-48
2024/04/24 11:58:40;;;;;;;5.38;0.77;;;;;;;;;;5249882;26;96209;-49
2024/04/24 12:01:07;;;;;;;3.80;0.65;;;;;;;;;;5253386;26;96016;-48
2024/04/24 12:03:33;;;;;;;6.97;0.55;;;;;;;;;;5232087;26;95932;-49
2024/04/24 12:05:59;;;;;;;24.45;3.38;;;;;;;;;;5252338;26;98851;-49
2024/04/24 12:08:27;;;;;;;5.90;0.60;;;;;;;;;;5254455;26;96173;-51
2024/04/24 12:11:00;;;;;;;20.52;2.03;;;;;;;;;;5249904;26;95646;-49
2024/04/24 12:13:29;;;;;;;6.15;1.00;;;;;;;;;;5287861;26;97239;-49
2024/04/24 12:16:01;;;;;;;11.85;0.85;;;;;;;;;;5258598;26;97584;-50
2024/04/24 12:18:27;;;;;;;5.85;0.60;;;;;;;;;;5251789;26;96028;-49
2024/04/24 12:20:53;;;;;;;30.67;2.30;;;;;;;;;;5255695;26;97232;-50
2024/04/24 12:23:24;;;;;;;8.88;0.63;;;;;;;;;;5257262;26;95473;-50
2024/04/24 12:25:50;;;;;;;5.07;0.90;;;;;;;;;;5290988;26;98661;-49
2024/04/24 12:28:15;;;;;;;13.85;1.27;;;;;;;;;;5256256;26;96246;-50
2024/04/24 12:30:40;;;;;;;6.15;0.98;;;;;;;;;;5259239;26;95831;-48
2024/04/24 12:33:06;;;;;;;6.72;1.00;;;;;;;;;;5251127;26;97575;-49
2024/04/24 12:35:32;;;;;;;8.48;0.93;;;;;;;;;;5233891;26;97870;-48
2024/04/24 12:37:58;;;;;;;5.70;1.00;;;;;;;;;;5299766;26;95992;-49
2024/04/24 12:40:23;;;;;;;20.33;1.50;;;;;;;;;;5251106;26;96581;-49
2024/04/24 12:42:48;;;;;;;11.68;1.95;;;;;;;;;;5296808;26;97154;-50
2024/04/24 12:45:14;;;;;;;4.95;0.90;;;;;;;;;;5255917;26;96009;-50
2024/04/24 12:47:39;;;;;;;5.30;0.73;;;;;;;;;;5233704;26;97273;-49
2024/04/24 12:50:04;;;;;;;8.52;1.20;;;;;;;;;;5250143;26;95968;-48
2024/04/24 12:52:30;;;;;;;11.80;1.83;;;;;;;;;;5257686;26;96564;-48
2024/04/24 12:54:55;;;;;;;12.77;1.20;;;;;;;;;;5282769;26;98864;-48
2024/04/24 12:57:22;;;;;;;7.30;0.80;;;;;;;;;;5244303;26;95891;-49
2024/04/24 12:59:47;;;;;;;6.25;1.20;;;;;;;;;;5245769;26;99084;-50
2024/04/24 13:02:12;;;;;;;48.70;2.65;;;;;;;;;;5243172;26;95808;-49
2024/04/24 13:04:38;;;;;;;8.25;1.23;;;;;;;;;;5264129;26;95919;-48
2024/04/24 13:07:03;;;;;;;9.30;1.05;;;;;;;;;;5268875;26;98985;-49
2024/04/24 13:09:28;;;;;;;6.50;0.80;;;;;;;;;;5261677;26;96118;-48
2024/04/24 13:11:54;;;;;;;8.73;1.05;;;;;;;;;;5293123;26;98967;-49
2024/04/24 13:14:19;;;;;;;9.35;1.17;;;;;;;;;;5256755;26;96013;-49
2024/04/24 13:16:45;;;;;;;7.88;1.38;;;;;;;;;;5250099;26;95884;-50
2024/04/24 13:19:10;;;;;;;13.13;1.48;;;;;;;;;;5281262;26;98881;-49
2024/04/24 13:21:36;;;;;;;6.38;0.82;;;;;;;;;;5261334;26;97941;-51
2024/04/24 13:24:01;;;;;;;4.55;0.98;;;;;;;;;;5257953;26;95964;-50
2024/04/24 13:26:26;;;;;;;7.10;1.23;;;;;;;;;;5262532;26;96032;-49
2024/04/24 13:28:52;;;;;;;6.80;1.13;;;;;;;;;;5250620;26;95885;-50
2024/04/24 13:31:17;;;;;;;7.72;1.13;;;;;;;;;;5253874;26;96589;-49
2024/04/24 13:33:42;;;;;;;6.20;1.20;;;;;;;;;;5261135;26;96625;-50
2024/04/24 13:36:08;;;;;;;8.55;1.23;;;;;;;;;;5254097;26;97971;-50
2024/04/24 13:38:33;;;;;;;27.92;1.88;;;;;;;;;;5256484;26;95941;-50
2024/04/24 13:41:02;;;;;;;6.10;1.20;;;;;;;;;;5264721;26;96025;-50
2024/04/24 13:43:28;;;;;;;8.25;1.10;;;;;;;;;;5254817;26;96470;-51
2024/04/24 13:45:53;;;;;;;9.18;1.42;;;;;;;;;;5248839;26;97343;-50
2024/04/24 13:48:18;;;;;;;6.70;1.15;;;;;;;;;;5253105;26;99792;-48
2024/04/24 13:50:44;;;;;;;6.25;1.20;;;;;;;;;;5253576;26;96678;-49
2024/04/24 13:53:09;;;;;;;19.17;1.98;;;;;;;;;;5254853;26;97248;-51
2024/04/24 13:55:34;;;;;;;9.40;1.60;;;;;;;;;;5282323;26;95609;-49
2024/04/24 13:58:00;;;;;;;7.70;1.35;;;;;;;;;;5250183;26;96556;-51
2024/04/24 14:00:25;;;;;;;8.02;1.75;;;;;;;;;;5250663;26;96069;-50
2024/04/24 14:02:50;;;;;;;11.48;1.88;;;;;;;;;;5272041;26;96050;-50
2024/04/24 14:05:16;;;;;;;11.95;2.28;;;;;;;;;;5260767;26;96065;-50
2024/04/24 14:07:41;;;;;;;7.82;1.67;;;;;;;;;;5263003;26;95776;-50
2024/04/24 14:10:07;;;;;;;7.22;2.13;;;;;;;;;;5259992;26;97531;-48
2024/04/24 14:12:34;;;;;;;9.23;1.30;;;;;;;;;;5256091;26;96029;-48
2024/04/24 14:14:59;;;;;;;12.38;1.70;;;;;;;;;;5264170;26;95741;-48
2024/04/24 14:17:26;;;;;;;12.13;1.83;;;;;;;;;;5253594;26;97537;-50
2024/04/24 14:19:54;;;;;;;7.63;1.50;;;;;;;;;;5244251;26;97391;-49
2024/04/24 14:22:20;;;;;;;8.60;1.52;;;;;;;;;;5261984;26;97124;-48
2024/04/24 14:24:45;;;;;;;4.85;1.17;;;;;;;;;;5283016;26;97558;-49
2024/04/24 14:27:10;;;;;;;9.55;1.38;;;;;;;;;;5263494;26;95669;-49
2024/04/24 14:29:36;;;;;;;9.75;1.45;;;;;;;;;;5299637;26;97283;-49
2024/04/24 14:32:01;;;;;;;9.57;1.55;;;;;;;;;;5262706;26;95969;-51
2024/04/24 14:34:26;;;;;;;8.98;1.20;;;;;;;;;;5263606;26;95784;-50